sensor_id;sensor_type;location;lat;lon;timestamp;temperature;humidity
16686;DHT22;8456;51.136;4.210;2022-08-21T00:01:35;16.90;99.90
16686;DHT22;8456;51.136;4.210;2022-08-21T00:04:06;16.90;99.90
16686;DHT22;8456;51.136;4.210;2022-08-21T00:06:32;16.80;99.90
16686;DHT22;8456;51.136;4.210;2022-08-21T00:09:00;16.80;99.90
16686;DHT22;8456;51.136;4.210;2022-08-21T00:11:26;16.70;99.90
16686;DHT22;8456;51.136;4.210;2022-08-21T00:13:53;16.70;99.90
16686;DHT22;8456;51.136;4.210;2022-08-21T00:16:19;16.70;99.90
16686;DHT22;8456;51.136;4.210;2022-08-21T00:18:44;16.60;99.90
16686;DHT22;8456;51.136;4.210;2022-08-21T00:21:14;16.60;99.90
16686;DHT22;8456;51.136;4.210;2022-08-21T00:23:40;16.60;99.90
16686;DHT22;8456;51.136;4.210;2022-08-21T00:26:07;16.60;99.90
16686;DHT22;8456;51.136;4.210;2022-08-21T00:28:33;16.50;99.90
16686;DHT22;8456;51.136;4.210;2022-08-21T00:30:59;16.50;99.90
16686;DHT22;8456;51.136;4.210;2022-08-21T00:33:25;16.50;99.90
16686;DHT22;8456;51.136;4.210;2022-08-21T00:35:52;16.50;99.90
16686;DHT22;8456;51.136;4.210;2022-08-21T00:38:18;16.50;99.90
16686;DHT22;8456;51.136;4.210;2022-08-21T00:40:56;16.40;99.90
16686;DHT22;8456;51.136;4.210;2022-08-21T00:43:26;16.40;99.90
16686;DHT22;8456;51.136;4.210;2022-08-21T00:45:54;16.40;99.90
16686;DHT22;8456;51.136;4.210;2022-08-21T00:48:21;16.40;99.90
16686;DHT22;8456;51.136;4.210;2022-08-21T00:51:18;16.40;99.90
16686;DHT22;8456;51.136;4.210;2022-08-21T00:53:56;16.30;99.90
16686;DHT22;8456;51.136;4.210;2022-08-21T00:56:23;16.30;99.90
16686;DHT22;8456;51.136;4.210;2022-08-21T00:58:49;16.30;99.90
16686;DHT22;8456;51.136;4.210;2022-08-21T01:01:16;16.30;99.90
16686;DHT22;8456;51.136;4.210;2022-08-21T01:03:41;16.20;99.90
16686;DHT22;8456;51.136;4.210;2022-08-21T01:06:07;16.20;99.90
16686;DHT22;8456;51.136;4.210;2022-08-21T01:08:35;16.10;99.90
16686;DHT22;8456;51.136;4.210;2022-08-21T01:11:01;16.10;99.90
16686;DHT22;8456;51.136;4.210;2022-08-21T01:13:29;16.00;99.90
16686;DHT22;8456;51.136;4.210;2022-08-21T01:15:58;16.00;99.90
16686;DHT22;8456;51.136;4.210;2022-08-21T01:18:25;16.00;99.90
16686;DHT22;8456;51.136;4.210;2022-08-21T01:21:01;16.00;99.90
16686;DHT22;8456;51.136;4.210;2022-08-21T01:23:27;16.00;99.90
16686;DHT22;8456;51.136;4.210;2022-08-21T01:25:53;16.00;99.90
16686;DHT22;8456;51.136;4.210;2022-08-21T01:28:19;16.10;99.90
16686;DHT22;8456;51.136;4.210;2022-08-21T01:30:46;16.10;99.90
16686;DHT22;8456;51.136;4.210;2022-08-21T01:33:14;16.10;99.90
16686;DHT22;8456;51.136;4.210;2022-08-21T01:35:39;16.00;99.90
16686;DHT22;8456;51.136;4.210;2022-08-21T01:38:05;16.00;99.90
16686;DHT22;8456;51.136;4.210;2022-08-21T01:40:31;16.00;99.90
16686;DHT22;8456;51.136;4.210;2022-08-21T01:42:57;15.90;99.90
16686;DHT22;8456;51.136;4.210;2022-08-21T01:45:22;15.90;99.90
16686;DHT22;8456;51.136;4.210;2022-08-21T01:47:48;15.80;99.90
16686;DHT22;8456;51.136;4.210;2022-08-21T01:50:18;15.80;99.90
16686;DHT22;8456;51.136;4.210;2022-08-21T01:52:44;15.70;99.90
16686;DHT22;8456;51.136;4.210;2022-08-21T01:55:12;15.80;99.90
16686;DHT22;8456;51.136;4.210;2022-08-21T01:57:38;15.70;99.90
16686;DHT22;8456;51.136;4.210;2022-08-21T02:00:10;15.80;99.90
16686;DHT22;8456;51.136;4.210;2022-08-21T02:02:40;15.70;99.90
16686;DHT22;8456;51.136;4.210;2022-08-21T02:05:08;15.80;99.90
16686;DHT22;8456;51.136;4.210;2022-08-21T02:07:45;15.80;99.90
16686;DHT22;8456;51.136;4.210;2022-08-21T02:10:14;15.70;99.90
16686;DHT22;8456;51.136;4.210;2022-08-21T02:12:40;15.70;99.90
16686;DHT22;8456;51.136;4.210;2022-08-21T02:15:06;15.70;99.90
16686;DHT22;8456;51.136;4.210;2022-08-21T02:17:44;15.70;99.90
16686;DHT22;8456;51.136;4.210;2022-08-21T02:20:16;15.60;99.90
16686;DHT22;8456;51.136;4.210;2022-08-21T02:22:42;15.60;99.90
16686;DHT22;8456;51.136;4.210;2022-08-21T02:25:08;15.60;99.90
16686;DHT22;8456;51.136;4.210;2022-08-21T02:27:39;15.50;99.90
16686;DHT22;8456;51.136;4.210;2022-08-21T02:30:06;15.60;99.90
16686;DHT22;8456;51.136;4.210;2022-08-21T02:32:32;15.60;99.90
16686;DHT22;8456;51.136;4.210;2022-08-21T02:34:58;15.70;99.90
16686;DHT22;8456;51.136;4.210;2022-08-21T02:37:24;15.80;99.90
16686;DHT22;8456;51.136;4.210;2022-08-21T02:39:50;15.90;99.90
16686;DHT22;8456;51.136;4.210;2022-08-21T02:42:16;15.90;99.90
16686;DHT22;8456;51.136;4.210;2022-08-21T02:44:42;15.90;99.90
16686;DHT22;8456;51.136;4.210;2022-08-21T02:47:07;15.80;99.90
16686;DHT22;8456;51.136;4.210;2022-08-21T02:49:33;15.80;99.90
16686;DHT22;8456;51.136;4.210;2022-08-21T02:51:59;15.70;99.90
16686;DHT22;8456;51.136;4.210;2022-08-21T02:54:25;15.70;99.90
16686;DHT22;8456;51.136;4.210;2022-08-21T02:56:50;15.60;99.90
16686;DHT22;8456;51.136;4.210;2022-08-21T02:59:16;15.60;99.90
16686;DHT22;8456;51.136;4.210;2022-08-21T03:01:43;15.60;99.90
16686;DHT22;8456;51.136;4.210;2022-08-21T03:04:09;15.50;99.90
16686;DHT22;8456;51.136;4.210;2022-08-21T03:06:36;15.50;99.90
16686;DHT22;8456;51.136;4.210;2022-08-21T03:09:02;15.60;99.90
16686;DHT22;8456;51.136;4.210;2022-08-21T03:11:28;15.50;99.90
16686;DHT22;8456;51.136;4.210;2022-08-21T03:13:54;15.60;99.90
16686;DHT22;8456;51.136;4.210;2022-08-21T03:16:19;15.70;99.90
16686;DHT22;8456;51.136;4.210;2022-08-21T03:18:46;15.70;99.90
16686;DHT22;8456;51.136;4.210;2022-08-21T03:21:12;15.80;99.90
16686;DHT22;8456;51.136;4.210;2022-08-21T03:23:38;15.80;99.90
16686;DHT22;8456;51.136;4.210;2022-08-21T03:26:06;15.80;99.90
16686;DHT22;8456;51.136;4.210;2022-08-21T03:28:32;15.80;99.90
16686;DHT22;8456;51.136;4.210;2022-08-21T03:30:58;15.70;99.90
16686;DHT22;8456;51.136;4.210;2022-08-21T03:33:24;15.80;99.90
16686;DHT22;8456;51.136;4.210;2022-08-21T03:36:02;15.90;99.90
16686;DHT22;8456;51.136;4.210;2022-08-21T03:38:29;15.70;99.90
16686;DHT22;8456;51.136;4.210;2022-08-21T03:40:56;15.70;99.90
16686;DHT22;8456;51.136;4.210;2022-08-21T03:43:22;15.70;99.90
16686;DHT22;8456;51.136;4.210;2022-08-21T03:45:47;15.70;99.90
16686;DHT22;8456;51.136;4.210;2022-08-21T03:48:13;15.70;99.90
16686;DHT22;8456;51.136;4.210;2022-08-21T03:50:41;15.70;99.90
16686;DHT22;8456;51.136;4.210;2022-08-21T03:53:09;15.60;99.90
16686;DHT22;8456;51.136;4.210;2022-08-21T03:55:34;15.60;99.90
16686;DHT22;8456;51.136;4.210;2022-08-21T03:58:00;15.50;99.90
16686;DHT22;8456;51.136;4.210;2022-08-21T04:00:27;15.50;99.90
16686;DHT22;8456;51.136;4.210;2022-08-21T04:02:52;15.50;99.90
16686;DHT22;8456;51.136;4.210;2022-08-21T04:05:19;15.50;99.90
16686;DHT22;8456;51.136;4.210;2022-08-21T04:08:00;15.50;99.90
16686;DHT22;8456;51.136;4.210;2022-08-21T04:10:28;15.40;99.90
16686;DHT22;8456;51.136;4.210;2022-08-21T04:12:54;15.40;99.90
16686;DHT22;8456;51.136;4.210;2022-08-21T04:15:21;15.40;99.90
16686;DHT22;8456;51.136;4.210;2022-08-21T04:17:47;15.40;99.90
16686;DHT22;8456;51.136;4.210;2022-08-21T04:20:15;15.40;99.90
16686;DHT22;8456;51.136;4.210;2022-08-21T04:22:41;15.40;99.90
16686;DHT22;8456;51.136;4.210;2022-08-21T04:25:07;15.50;99.90
16686;DHT22;8456;51.136;4.210;2022-08-21T04:27:34;15.50;99.90
16686;DHT22;8456;51.136;4.210;2022-08-21T04:30:00;15.60;99.90
16686;DHT22;8456;51.136;4.210;2022-08-21T04:32:26;15.60;99.90
16686;DHT22;8456;51.136;4.210;2022-08-21T04:35:05;15.40;99.90
16686;DHT22;8456;51.136;4.210;2022-08-21T04:37:31;15.40;99.90
16686;DHT22;8456;51.136;4.210;2022-08-21T04:39:57;15.40;99.90
16686;DHT22;8456;51.136;4.210;2022-08-21T04:42:27;15.30;99.90
16686;DHT22;8456;51.136;4.210;2022-08-21T04:44:53;15.40;99.90
16686;DHT22;8456;51.136;4.210;2022-08-21T04:47:20;15.30;99.90
16686;DHT22;8456;51.136;4.210;2022-08-21T04:49:46;15.30;99.90
16686;DHT22;8456;51.136;4.210;2022-08-21T04:52:15;15.30;99.90
16686;DHT22;8456;51.136;4.210;2022-08-21T04:54:43;15.30;99.90
16686;DHT22;8456;51.136;4.210;2022-08-21T04:57:11;15.40;99.90
16686;DHT22;8456;51.136;4.210;2022-08-21T04:59:42;15.30;99.90
16686;DHT22;8456;51.136;4.210;2022-08-21T05:02:09;15.30;99.90
16686;DHT22;8456;51.136;4.210;2022-08-21T05:04:41;15.50;99.90
16686;DHT22;8456;51.136;4.210;2022-08-21T05:07:11;15.50;99.90
16686;DHT22;8456;51.136;4.210;2022-08-21T05:09:38;15.50;99.90
16686;DHT22;8456;51.136;4.210;2022-08-21T05:12:04;15.50;99.90
16686;DHT22;8456;51.136;4.210;2022-08-21T05:14:31;15.60;99.90
16686;DHT22;8456;51.136;4.210;2022-08-21T05:16:56;15.70;99.90
16686;DHT22;8456;51.136;4.210;2022-08-21T05:19:22;15.60;99.90
16686;DHT22;8456;51.136;4.210;2022-08-21T05:21:48;15.60;99.90
16686;DHT22;8456;51.136;4.210;2022-08-21T05:24:14;15.60;99.90
16686;DHT22;8456;51.136;4.210;2022-08-21T05:26:41;15.60;99.90
16686;DHT22;8456;51.136;4.210;2022-08-21T05:29:07;15.60;99.90
16686;DHT22;8456;51.136;4.210;2022-08-21T05:31:33;15.70;99.90
16686;DHT22;8456;51.136;4.210;2022-08-21T05:33:59;15.70;99.90
16686;DHT22;8456;51.136;4.210;2022-08-21T05:36:24;15.80;99.90
16686;DHT22;8456;51.136;4.210;2022-08-21T05:38:52;16.00;99.90
16686;DHT22;8456;51.136;4.210;2022-08-21T05:41:17;16.00;99.90
16686;DHT22;8456;51.136;4.210;2022-08-21T05:43:43;16.10;99.90
16686;DHT22;8456;51.136;4.210;2022-08-21T05:46:09;16.10;99.90
16686;DHT22;8456;51.136;4.210;2022-08-21T05:48:35;16.10;99.90
16686;DHT22;8456;51.136;4.210;2022-08-21T05:51:08;16.10;99.90
16686;DHT22;8456;51.136;4.210;2022-08-21T05:53:34;16.20;99.90
16686;DHT22;8456;51.136;4.210;2022-08-21T05:56:00;16.20;99.90
16686;DHT22;8456;51.136;4.210;2022-08-21T05:58:30;16.30;99.90
16686;DHT22;8456;51.136;4.210;2022-08-21T06:00:59;16.40;99.90
16686;DHT22;8456;51.136;4.210;2022-08-21T06:03:34;16.50;99.90
16686;DHT22;8456;51.136;4.210;2022-08-21T06:06:00;16.50;99.90
16686;DHT22;8456;51.136;4.210;2022-08-21T06:08:26;16.60;99.90
16686;DHT22;8456;51.136;4.210;2022-08-21T06:10:54;16.60;99.90
16686;DHT22;8456;51.136;4.210;2022-08-21T06:13:22;16.80;99.90
16686;DHT22;8456;51.136;4.210;2022-08-21T06:15:49;16.70;99.90
16686;DHT22;8456;51.136;4.210;2022-08-21T06:18:16;16.90;99.90
16686;DHT22;8456;51.136;4.210;2022-08-21T06:20:42;16.90;99.90
16686;DHT22;8456;51.136;4.210;2022-08-21T06:23:08;17.00;99.90
16686;DHT22;8456;51.136;4.210;2022-08-21T06:25:34;17.10;99.90
16686;DHT22;8456;51.136;4.210;2022-08-21T06:28:06;17.20;99.90
16686;DHT22;8456;51.136;4.210;2022-08-21T06:30:33;17.30;99.90
16686;DHT22;8456;51.136;4.210;2022-08-21T06:32:59;17.50;99.90
16686;DHT22;8456;51.136;4.210;2022-08-21T06:35:26;17.70;99.90
16686;DHT22;8456;51.136;4.210;2022-08-21T06:37:51;18.00;99.90
16686;DHT22;8456;51.136;4.210;2022-08-21T06:40:17;18.50;99.90
16686;DHT22;8456;51.136;4.210;2022-08-21T06:42:43;18.90;99.90
16686;DHT22;8456;51.136;4.210;2022-08-21T06:45:10;19.50;99.90
16686;DHT22;8456;51.136;4.210;2022-08-21T06:47:36;20.10;99.90
16686;DHT22;8456;51.136;4.210;2022-08-21T06:50:02;20.40;99.90
16686;DHT22;8456;51.136;4.210;2022-08-21T06:52:29;21.00;99.90
16686;DHT22;8456;51.136;4.210;2022-08-21T06:54:54;21.80;99.90
16686;DHT22;8456;51.136;4.210;2022-08-21T06:57:20;22.80;99.90
16686;DHT22;8456;51.136;4.210;2022-08-21T06:59:47;24.00;99.90
16686;DHT22;8456;51.136;4.210;2022-08-21T07:02:13;24.50;99.90
16686;DHT22;8456;51.136;4.210;2022-08-21T07:04:38;25.20;99.90
16686;DHT22;8456;51.136;4.210;2022-08-21T07:07:04;26.20;99.90
16686;DHT22;8456;51.136;4.210;2022-08-21T07:09:30;26.50;99.90
16686;DHT22;8456;51.136;4.210;2022-08-21T07:11:56;26.20;99.90
16686;DHT22;8456;51.136;4.210;2022-08-21T07:14:22;26.90;99.90
16686;DHT22;8456;51.136;4.210;2022-08-21T07:16:49;27.20;99.90
16686;DHT22;8456;51.136;4.210;2022-08-21T07:19:16;27.40;99.90
16686;DHT22;8456;51.136;4.210;2022-08-21T07:21:42;27.50;99.90
16686;DHT22;8456;51.136;4.210;2022-08-21T07:24:08;27.70;99.90
16686;DHT22;8456;51.136;4.210;2022-08-21T07:26:34;27.90;99.90
16686;DHT22;8456;51.136;4.210;2022-08-21T07:29:00;27.80;99.90
16686;DHT22;8456;51.136;4.210;2022-08-21T07:31:27;28.30;99.90
16686;DHT22;8456;51.136;4.210;2022-08-21T07:33:53;28.60;99.90
16686;DHT22;8456;51.136;4.210;2022-08-21T07:36:19;29.10;99.90
16686;DHT22;8456;51.136;4.210;2022-08-21T07:38:46;29.20;99.90
16686;DHT22;8456;51.136;4.210;2022-08-21T07:41:17;29.20;99.90
16686;DHT22;8456;51.136;4.210;2022-08-21T07:43:43;29.70;99.90
16686;DHT22;8456;51.136;4.210;2022-08-21T07:46:09;29.90;99.90
16686;DHT22;8456;51.136;4.210;2022-08-21T07:48:35;29.80;99.90
16686;DHT22;8456;51.136;4.210;2022-08-21T07:51:07;29.60;99.90
16686;DHT22;8456;51.136;4.210;2022-08-21T07:53:34;29.40;99.90
16686;DHT22;8456;51.136;4.210;2022-08-21T07:56:01;29.20;99.90
16686;DHT22;8456;51.136;4.210;2022-08-21T07:58:27;29.90;99.90
16686;DHT22;8456;51.136;4.210;2022-08-21T08:00:53;30.70;99.90
16686;DHT22;8456;51.136;4.210;2022-08-21T08:03:18;31.10;99.90
16686;DHT22;8456;51.136;4.210;2022-08-21T08:05:44;31.00;99.90
16686;DHT22;8456;51.136;4.210;2022-08-21T08:08:10;30.70;99.90
16686;DHT22;8456;51.136;4.210;2022-08-21T08:10:37;30.60;99.90
16686;DHT22;8456;51.136;4.210;2022-08-21T08:13:03;30.50;99.90
16686;DHT22;8456;51.136;4.210;2022-08-21T08:15:30;30.20;99.90
16686;DHT22;8456;51.136;4.210;2022-08-21T08:17:56;30.10;99.90
16686;DHT22;8456;51.136;4.210;2022-08-21T08:20:23;29.80;99.90
16686;DHT22;8456;51.136;4.210;2022-08-21T08:22:50;29.50;99.90
16686;DHT22;8456;51.136;4.210;2022-08-21T08:25:17;29.70;99.90
16686;DHT22;8456;51.136;4.210;2022-08-21T08:27:44;29.80;99.90
16686;DHT22;8456;51.136;4.210;2022-08-21T08:30:12;29.70;99.90
16686;DHT22;8456;51.136;4.210;2022-08-21T08:32:38;30.00;99.90
16686;DHT22;8456;51.136;4.210;2022-08-21T08:35:05;30.30;99.90
16686;DHT22;8456;51.136;4.210;2022-08-21T08:37:33;30.30;99.90
16686;DHT22;8456;51.136;4.210;2022-08-21T08:39:59;30.40;99.90
16686;DHT22;8456;51.136;4.210;2022-08-21T08:42:29;29.60;99.90
16686;DHT22;8456;51.136;4.210;2022-08-21T08:45:04;29.60;99.90
16686;DHT22;8456;51.136;4.210;2022-08-21T08:47:35;29.40;99.90
16686;DHT22;8456;51.136;4.210;2022-08-21T08:50:12;30.00;99.90
16686;DHT22;8456;51.136;4.210;2022-08-21T08:52:49;29.70;99.90
16686;DHT22;8456;51.136;4.210;2022-08-21T08:55:37;29.80;99.90
16686;DHT22;8456;51.136;4.210;2022-08-21T08:58:04;29.90;99.90
16686;DHT22;8456;51.136;4.210;2022-08-21T09:00:31;30.20;99.90
16686;DHT22;8456;51.136;4.210;2022-08-21T09:02:59;30.30;99.90
16686;DHT22;8456;51.136;4.210;2022-08-21T09:05:36;30.70;99.90
16686;DHT22;8456;51.136;4.210;2022-08-21T09:16:24;29.10;99.90
16686;DHT22;8456;51.136;4.210;2022-08-21T09:22:32;28.90;99.90
16686;DHT22;8456;51.136;4.210;2022-08-21T09:24:52;28.60;99.90
16686;DHT22;8456;51.136;4.210;2022-08-21T09:27:20;28.60;99.90
16686;DHT22;8456;51.136;4.210;2022-08-21T09:29:50;28.80;99.90
16686;DHT22;8456;51.136;4.210;2022-08-21T09:35:08;28.30;99.90
16686;DHT22;8456;51.136;4.210;2022-08-21T09:37:46;27.90;99.90
16686;DHT22;8456;51.136;4.210;2022-08-21T09:43:22;27.50;99.90
16686;DHT22;8456;51.136;4.210;2022-08-21T09:49:02;27.60;99.90
16686;DHT22;8456;51.136;4.210;2022-08-21T09:51:35;27.40;99.90
16686;DHT22;8456;51.136;4.210;2022-08-21T09:56:39;27.40;99.90
16686;DHT22;8456;51.136;4.210;2022-08-21T09:59:34;27.70;99.90
16686;DHT22;8456;51.136;4.210;2022-08-21T10:02:03;27.90;99.90
16686;DHT22;8456;51.136;4.210;2022-08-21T10:04:40;28.00;99.90
16686;DHT22;8456;51.136;4.210;2022-08-21T10:07:13;28.00;99.90
16686;DHT22;8456;51.136;4.210;2022-08-21T10:09:41;28.00;99.90
16686;DHT22;8456;51.136;4.210;2022-08-21T10:12:10;28.20;99.90
16686;DHT22;8456;51.136;4.210;2022-08-21T10:20:14;28.20;99.90
16686;DHT22;8456;51.136;4.210;2022-08-21T10:25:49;27.50;99.90
16686;DHT22;8456;51.136;4.210;2022-08-21T10:28:27;27.20;99.90
16686;DHT22;8456;51.136;4.210;2022-08-21T10:31:32;27.10;99.90
16686;DHT22;8456;51.136;4.210;2022-08-21T10:40:07;27.00;99.90
16686;DHT22;8456;51.136;4.210;2022-08-21T10:47:37;27.20;99.90
16686;DHT22;8456;51.136;4.210;2022-08-21T10:50:12;27.40;99.90
16686;DHT22;8456;51.136;4.210;2022-08-21T10:55:14;27.30;99.90
16686;DHT22;8456;51.136;4.210;2022-08-21T10:58:05;27.30;99.90
16686;DHT22;8456;51.136;4.210;2022-08-21T11:00:58;27.40;99.90
16686;DHT22;8456;51.136;4.210;2022-08-21T11:03:46;27.60;99.90
16686;DHT22;8456;51.136;4.210;2022-08-21T11:06:22;27.50;99.90
16686;DHT22;8456;51.136;4.210;2022-08-21T11:08:54;27.40;99.90
16686;DHT22;8456;51.136;4.210;2022-08-21T11:11:27;27.20;99.90
16686;DHT22;8456;51.136;4.210;2022-08-21T11:17:02;26.80;99.90
16686;DHT22;8456;51.136;4.210;2022-08-21T11:19:59;26.70;99.90
16686;DHT22;8456;51.136;4.210;2022-08-21T11:25:31;26.70;99.90
16686;DHT22;8456;51.136;4.210;2022-08-21T11:28:08;26.90;99.90
16686;DHT22;8456;51.136;4.210;2022-08-21T11:38:48;27.10;99.90
16686;DHT22;8456;51.136;4.210;2022-08-21T11:44:19;27.20;99.90
16686;DHT22;8456;51.136;4.210;2022-08-21T11:52:59;27.40;99.90
16686;DHT22;8456;51.136;4.210;2022-08-21T11:55:37;27.40;99.80
16686;DHT22;8456;51.136;4.210;2022-08-21T11:58:16;27.30;99.90
16686;DHT22;8456;51.136;4.210;2022-08-21T12:00:52;27.30;99.90
16686;DHT22;8456;51.136;4.210;2022-08-21T12:03:29;27.30;99.90
16686;DHT22;8456;51.136;4.210;2022-08-21T12:05:59;27.40;99.90
16686;DHT22;8456;51.136;4.210;2022-08-21T12:08:35;27.30;99.90
16686;DHT22;8456;51.136;4.210;2022-08-21T12:14:21;27.10;99.90
16686;DHT22;8456;51.136;4.210;2022-08-21T12:16:48;27.00;99.90
16686;DHT22;8456;51.136;4.210;2022-08-21T12:29:30;27.10;99.90
16686;DHT22;8456;51.136;4.210;2022-08-21T12:34:35;26.80;99.90
16686;DHT22;8456;51.136;4.210;2022-08-21T12:37:38;26.70;99.90
16686;DHT22;8456;51.136;4.210;2022-08-21T12:40:02;26.70;99.90
16686;DHT22;8456;51.136;4.210;2022-08-21T12:42:41;26.60;99.90
16686;DHT22;8456;51.136;4.210;2022-08-21T12:45:23;26.60;99.90
16686;DHT22;8456;51.136;4.210;2022-08-21T12:48:00;26.60;99.90
16686;DHT22;8456;51.136;4.210;2022-08-21T12:50:35;26.50;99.90
16686;DHT22;8456;51.136;4.210;2022-08-21T12:53:09;26.50;99.90
16686;DHT22;8456;51.136;4.210;2022-08-21T12:55:41;26.40;99.90
16686;DHT22;8456;51.136;4.210;2022-08-21T12:58:23;26.40;99.90
16686;DHT22;8456;51.136;4.210;2022-08-21T13:01:03;26.40;99.90
16686;DHT22;8456;51.136;4.210;2022-08-21T13:03:30;26.30;99.90
16686;DHT22;8456;51.136;4.210;2022-08-21T13:05:58;26.30;99.90
16686;DHT22;8456;51.136;4.210;2022-08-21T13:08:26;26.30;99.90
16686;DHT22;8456;51.136;4.210;2022-08-21T13:11:01;26.30;99.90
16686;DHT22;8456;51.136;4.210;2022-08-21T13:13:29;26.30;99.90
16686;DHT22;8456;51.136;4.210;2022-08-21T13:16:04;26.40;99.90
16686;DHT22;8456;51.136;4.210;2022-08-21T13:18:33;26.40;99.90
16686;DHT22;8456;51.136;4.210;2022-08-21T13:21:14;26.50;99.90
16686;DHT22;8456;51.136;4.210;2022-08-21T13:23:40;26.60;99.90
16686;DHT22;8456;51.136;4.210;2022-08-21T13:26:19;26.60;99.90
16686;DHT22;8456;51.136;4.210;2022-08-21T13:28:46;26.70;99.90
16686;DHT22;8456;51.136;4.210;2022-08-21T13:31:22;26.80;99.90
16686;DHT22;8456;51.136;4.210;2022-08-21T13:33:50;26.90;99.90
16686;DHT22;8456;51.136;4.210;2022-08-21T13:36:37;26.90;99.60
16686;DHT22;8456;51.136;4.210;2022-08-21T13:39:07;26.70;99.90
16686;DHT22;8456;51.136;4.210;2022-08-21T13:41:35;26.60;99.90
16686;DHT22;8456;51.136;4.210;2022-08-21T13:46:59;26.50;99.90
16686;DHT22;8456;51.136;4.210;2022-08-21T13:49:31;26.50;99.90
16686;DHT22;8456;51.136;4.210;2022-08-21T13:51:57;26.30;99.90
16686;DHT22;8456;51.136;4.210;2022-08-21T13:54:25;26.30;99.90
16686;DHT22;8456;51.136;4.210;2022-08-21T13:56:53;26.30;99.90
16686;DHT22;8456;51.136;4.210;2022-08-21T13:59:35;26.30;99.90
16686;DHT22;8456;51.136;4.210;2022-08-21T14:02:14;26.40;99.90
16686;DHT22;8456;51.136;4.210;2022-08-21T14:05:00;26.50;99.90
16686;DHT22;8456;51.136;4.210;2022-08-21T14:07:31;26.70;99.90
16686;DHT22;8456;51.136;4.210;2022-08-21T14:10:05;26.80;99.90
16686;DHT22;8456;51.136;4.210;2022-08-21T14:12:38;26.90;99.70
16686;DHT22;8456;51.136;4.210;2022-08-21T14:15:07;26.80;99.90
16686;DHT22;8456;51.136;4.210;2022-08-21T14:17:37;26.80;99.80
16686;DHT22;8456;51.136;4.210;2022-08-21T14:20:12;26.70;99.40
16686;DHT22;8456;51.136;4.210;2022-08-21T14:22:46;26.70;99.30
16686;DHT22;8456;51.136;4.210;2022-08-21T14:28:23;26.60;99.80
16686;DHT22;8456;51.136;4.210;2022-08-21T14:30:51;26.70;99.90
16686;DHT22;8456;51.136;4.210;2022-08-21T14:33:29;26.50;99.70
16686;DHT22;8456;51.136;4.210;2022-08-21T14:35:56;26.50;99.90
16686;DHT22;8456;51.136;4.210;2022-08-21T14:38:23;26.50;99.70
16686;DHT22;8456;51.136;4.210;2022-08-21T14:40:53;26.50;99.90
16686;DHT22;8456;51.136;4.210;2022-08-21T14:43:20;26.50;99.90
16686;DHT22;8456;51.136;4.210;2022-08-21T14:45:46;26.50;99.90
16686;DHT22;8456;51.136;4.210;2022-08-21T14:48:12;26.40;99.90
16686;DHT22;8456;51.136;4.210;2022-08-21T14:50:38;26.50;99.90
16686;DHT22;8456;51.136;4.210;2022-08-21T14:53:05;26.50;99.90
16686;DHT22;8456;51.136;4.210;2022-08-21T14:55:31;26.70;99.50
16686;DHT22;8456;51.136;4.210;2022-08-21T14:58:18;26.70;99.30
16686;DHT22;8456;51.136;4.210;2022-08-21T15:00:43;26.70;99.00
16686;DHT22;8456;51.136;4.210;2022-08-21T15:03:09;26.70;99.70
16686;DHT22;8456;51.136;4.210;2022-08-21T15:05:35;26.70;99.30
16686;DHT22;8456;51.136;4.210;2022-08-21T15:08:01;26.70;99.90
16686;DHT22;8456;51.136;4.210;2022-08-21T15:10:27;26.70;99.90
16686;DHT22;8456;51.136;4.210;2022-08-21T15:12:55;26.90;99.90
16686;DHT22;8456;51.136;4.210;2022-08-21T15:15:21;27.00;99.70
16686;DHT22;8456;51.136;4.210;2022-08-21T15:17:46;27.00;99.90
16686;DHT22;8456;51.136;4.210;2022-08-21T15:20:12;27.00;99.90
16686;DHT22;8456;51.136;4.210;2022-08-21T15:22:39;26.90;99.50
16686;DHT22;8456;51.136;4.210;2022-08-21T15:25:05;26.90;99.20
16686;DHT22;8456;51.136;4.210;2022-08-21T15:27:31;26.90;99.90
16686;DHT22;8456;51.136;4.210;2022-08-21T15:29:57;27.00;99.70
16686;DHT22;8456;51.136;4.210;2022-08-21T15:32:25;26.90;99.40
16686;DHT22;8456;51.136;4.210;2022-08-21T15:34:53;26.90;99.50
16686;DHT22;8456;51.136;4.210;2022-08-21T15:37:20;26.90;99.70
16686;DHT22;8456;51.136;4.210;2022-08-21T15:39:46;26.90;99.90
16686;DHT22;8456;51.136;4.210;2022-08-21T15:42:12;26.70;99.90
16686;DHT22;8456;51.136;4.210;2022-08-21T15:44:41;26.80;99.90
16686;DHT22;8456;51.136;4.210;2022-08-21T15:47:19;26.80;99.90
16686;DHT22;8456;51.136;4.210;2022-08-21T15:49:46;26.80;99.90
16686;DHT22;8456;51.136;4.210;2022-08-21T15:52:17;26.80;99.90
16686;DHT22;8456;51.136;4.210;2022-08-21T15:54:43;26.70;99.90
16686;DHT22;8456;51.136;4.210;2022-08-21T15:57:13;26.60;99.90
16686;DHT22;8456;51.136;4.210;2022-08-21T15:59:47;26.50;99.90
16686;DHT22;8456;51.136;4.210;2022-08-21T16:02:26;26.40;99.90
16686;DHT22;8456;51.136;4.210;2022-08-21T16:04:52;26.30;99.90
16686;DHT22;8456;51.136;4.210;2022-08-21T16:07:18;26.40;99.90
16686;DHT22;8456;51.136;4.210;2022-08-21T16:09:44;26.30;99.90
16686;DHT22;8456;51.136;4.210;2022-08-21T16:12:17;26.20;99.90
16686;DHT22;8456;51.136;4.210;2022-08-21T16:14:45;26.10;99.90
16686;DHT22;8456;51.136;4.210;2022-08-21T16:17:10;26.00;99.90
16686;DHT22;8456;51.136;4.210;2022-08-21T16:19:37;26.00;99.90
16686;DHT22;8456;51.136;4.210;2022-08-21T16:22:03;26.00;99.90
16686;DHT22;8456;51.136;4.210;2022-08-21T16:24:29;26.00;99.90
16686;DHT22;8456;51.136;4.210;2022-08-21T16:26:55;25.90;99.90
16686;DHT22;8456;51.136;4.210;2022-08-21T16:29:21;25.80;99.90
16686;DHT22;8456;51.136;4.210;2022-08-21T16:31:48;25.70;99.90
16686;DHT22;8456;51.136;4.210;2022-08-21T16:34:17;25.70;99.90
16686;DHT22;8456;51.136;4.210;2022-08-21T16:36:44;25.50;99.90
16686;DHT22;8456;51.136;4.210;2022-08-21T16:39:10;25.50;99.90
16686;DHT22;8456;51.136;4.210;2022-08-21T16:41:36;25.40;99.90
16686;DHT22;8456;51.136;4.210;2022-08-21T16:44:03;25.40;99.90
16686;DHT22;8456;51.136;4.210;2022-08-21T16:46:33;25.20;99.90
16686;DHT22;8456;51.136;4.210;2022-08-21T16:48:59;25.10;99.90
16686;DHT22;8456;51.136;4.210;2022-08-21T16:51:25;25.10;99.90
16686;DHT22;8456;51.136;4.210;2022-08-21T16:53:52;25.20;99.90
16686;DHT22;8456;51.136;4.210;2022-08-21T16:56:18;25.20;99.90
16686;DHT22;8456;51.136;4.210;2022-08-21T16:58:46;25.10;99.90
16686;DHT22;8456;51.136;4.210;2022-08-21T17:01:15;25.10;99.90
16686;DHT22;8456;51.136;4.210;2022-08-21T17:03:45;25.00;99.90
16686;DHT22;8456;51.136;4.210;2022-08-21T17:06:12;25.10;99.90
16686;DHT22;8456;51.136;4.210;2022-08-21T17:08:39;25.20;99.90
16686;DHT22;8456;51.136;4.210;2022-08-21T17:11:07;25.20;99.90
16686;DHT22;8456;51.136;4.210;2022-08-21T17:13:33;25.20;99.90
16686;DHT22;8456;51.136;4.210;2022-08-21T17:15:59;25.10;99.90
16686;DHT22;8456;51.136;4.210;2022-08-21T17:18:25;25.10;99.90
16686;DHT22;8456;51.136;4.210;2022-08-21T17:20:51;25.10;99.90
16686;DHT22;8456;51.136;4.210;2022-08-21T17:23:18;25.00;99.90
16686;DHT22;8456;51.136;4.210;2022-08-21T17:25:46;25.00;99.90
16686;DHT22;8456;51.136;4.210;2022-08-21T17:28:19;24.80;99.90